Lewistown, Pennsylvania
Current Conditions -  °F | °C
As of 4:35 AM on Friday 19 Dec 2014 (Local Time) from KUNV Reporting Station
Overcast Overcast  
Wind Chill: 22°   Ceiling: 1900
Heat Index: 30°   Visibility: 10mi
Dew Point: 25°   Wind: 8mph
Humidity: 81%   Direction: 270°W
Pressure: 30.05"   Gusts: NA
Location:  40.6°N, 77.57°W
Report Text: KUNV 190935Z AUTO 27007KT 10SM OVC019 M01/M04 A3005 RMK AO2 T10111040
Loading
Personal Weather Stations






























Interactive Weather Map New forecast layout! Learn more

10-Day Weather Forecast

Advertisements
Track Severe Weather on mobile